createdAt,value
2023-02-02T00:01:55.631Z,87.81
2023-02-02T00:04:34.060Z,88.21
2023-02-02T00:07:02.724Z,88.22
2023-02-02T00:09:31.555Z,87.90
2023-02-02T00:11:59.368Z,88.08
2023-02-02T00:14:26.601Z,87.29
2023-02-02T00:16:57.659Z,87.26
2023-02-02T00:19:26.969Z,87.21
2023-02-02T00:21:54.880Z,87.44
2023-02-02T00:24:22.406Z,86.93
2023-02-02T00:26:51.773Z,86.76
2023-02-02T00:29:21.892Z,86.10
2023-02-02T00:31:48.636Z,86.15
2023-02-02T00:34:16.288Z,86.38
2023-02-02T00:36:43.846Z,86.29
2023-02-02T00:39:14.142Z,86.38
2023-02-02T00:41:40.602Z,85.71
2023-02-02T00:44:26.468Z,85.82
2023-02-02T00:46:52.977Z,85.79
2023-02-02T00:49:19.398Z,86.24
2023-02-02T00:51:45.825Z,85.63
2023-02-02T00:54:14.171Z,85.79
2023-02-02T00:56:42.243Z,85.92
2023-02-02T00:59:08.853Z,85.17
2023-02-02T01:01:35.447Z,85.12
2023-02-02T01:04:01.907Z,85.66
2023-02-02T01:06:28.344Z,85.44
2023-02-02T01:08:54.856Z,85.27
2023-02-02T01:11:21.366Z,85.58
2023-02-02T01:13:47.904Z,85.55
2023-02-02T01:16:14.442Z,85.54
2023-02-02T01:18:40.916Z,85.30
2023-02-02T01:21:10.514Z,85.10
2023-02-02T01:23:38.448Z,85.49
2023-02-02T01:26:07.790Z,85.24
2023-02-02T01:28:35.329Z,85.72
2023-02-02T01:31:07.844Z,86.23
2023-02-02T01:33:34.303Z,85.83
2023-02-02T01:36:07.546Z,85.16
2023-02-02T01:38:34.962Z,85.51
2023-02-02T01:41:01.921Z,85.01
2023-02-02T01:43:53.035Z,85.19
2023-02-02T01:46:38.510Z,85.35
2023-02-02T01:49:14.771Z,85.85
2023-02-02T01:51:55.300Z,85.79
2023-02-02T01:54:40.779Z,85.25
2023-02-02T01:57:27.468Z,85.60
2023-02-02T01:59:56.972Z,86.60
2023-02-02T02:02:25.592Z,85.78
2023-02-02T02:04:52.310Z,85.78
2023-02-02T02:07:18.952Z,85.83
2023-02-02T02:09:45.351Z,85.91
2023-02-02T02:12:14.428Z,86.20
2023-02-02T02:15:03.116Z,86.20
2023-02-02T02:17:41.179Z,87.55
2023-02-02T02:20:53.322Z,87.76
2023-02-02T02:24:03.712Z,88.07
2023-02-02T02:26:48.626Z,88.50
2023-02-02T02:29:43.760Z,88.85
2023-02-02T02:32:40.899Z,89.07
2023-02-02T02:35:33.362Z,90.13
2023-02-02T02:38:20.849Z,90.24
2023-02-02T02:40:51.995Z,89.98
2023-02-02T02:43:27.081Z,90.35
2023-02-02T02:45:55.171Z,90.79
2023-02-02T02:48:22.266Z,90.82
2023-02-02T02:50:50.106Z,90.91
2023-02-02T02:53:21.368Z,90.52
2023-02-02T02:56:03.866Z,89.76
2023-02-02T02:59:07.144Z,89.71
2023-02-02T03:01:55.722Z,89.92
2023-02-02T03:04:31.261Z,89.60
2023-02-02T03:07:03.053Z,89.53
2023-02-02T03:09:35.820Z,89.31
2023-02-02T03:12:02.447Z,89.48
2023-02-02T03:14:29.020Z,89.36
2023-02-02T03:16:55.382Z,89.72
2023-02-02T03:19:21.918Z,90.10
2023-02-02T03:21:48.295Z,89.82
2023-02-02T03:24:14.693Z,88.87
2023-02-02T03:26:41.338Z,89.76
2023-02-02T03:29:07.846Z,89.79
2023-02-02T03:31:34.336Z,89.58
2023-02-02T03:34:00.760Z,90.00
2023-02-02T03:36:27.878Z,90.21
2023-02-02T03:38:54.360Z,90.09
2023-02-02T03:41:20.818Z,89.83
2023-02-02T03:43:47.189Z,90.13
2023-02-02T03:46:13.709Z,90.31
2023-02-02T03:48:40.118Z,91.22
2023-02-02T03:51:08.883Z,91.71
2023-02-02T03:53:35.644Z,92.49
2023-02-02T03:56:02.029Z,92.39
2023-02-02T03:58:28.424Z,93.12
2023-02-02T04:01:02.153Z,92.79
2023-02-02T04:03:28.560Z,93.56
2023-02-02T04:05:54.968Z,93.69
2023-02-02T04:08:21.344Z,94.35
2023-02-02T04:10:47.779Z,94.22
2023-02-02T04:13:14.156Z,94.59
2023-02-02T04:15:40.692Z,94.88
2023-02-02T04:18:07.100Z,94.86
2023-02-02T04:20:33.497Z,94.87
2023-02-02T04:23:00.021Z,94.62
2023-02-02T04:25:26.756Z,94.39
2023-02-02T04:27:53.405Z,94.96
2023-02-02T04:30:20.219Z,94.50
2023-02-02T04:32:46.817Z,94.30
2023-02-02T04:35:13.221Z,94.98
2023-02-02T04:37:39.642Z,93.94
2023-02-02T04:40:06.680Z,93.85
2023-02-02T04:42:34.919Z,93.34
2023-02-02T04:45:01.377Z,93.34
2023-02-02T04:47:27.769Z,93.07
2023-02-02T04:49:54.148Z,93.02
2023-02-02T04:52:20.656Z,93.98
2023-02-02T04:54:47.081Z,94.10
2023-02-02T04:57:13.513Z,94.65
2023-02-02T04:59:42.234Z,94.35
2023-02-02T05:02:09.199Z,94.68
2023-02-02T05:04:36.631Z,95.14
2023-02-02T05:07:03.071Z,95.51
2023-02-02T05:09:29.464Z,95.43
2023-02-02T05:11:55.863Z,95.70
2023-02-02T05:14:22.441Z,96.08
2023-02-02T05:16:49.950Z,95.66
2023-02-02T05:19:16.992Z,95.68
2023-02-02T05:21:51.158Z,95.97
2023-02-02T05:24:17.861Z,96.24
2023-02-02T05:26:44.254Z,95.68
2023-02-02T05:29:10.731Z,95.62
2023-02-02T05:31:37.217Z,95.35
2023-02-02T05:34:03.953Z,94.86
2023-02-02T05:36:30.430Z,95.20
2023-02-02T05:38:56.855Z,95.72
2023-02-02T05:41:23.279Z,95.27
2023-02-02T05:43:49.672Z,95.98
2023-02-02T05:46:16.204Z,95.76
2023-02-02T05:48:42.608Z,95.42
2023-02-02T05:51:25.572Z,95.13
2023-02-02T05:53:52.001Z,96.08
2023-02-02T05:56:18.457Z,95.36
2023-02-02T05:58:47.236Z,95.86
2023-02-02T06:01:14.191Z,95.41
2023-02-02T06:03:40.609Z,95.28
2023-02-02T06:06:07.367Z,95.49
2023-02-02T06:08:34.264Z,95.96
2023-02-02T06:11:00.752Z,96.10
2023-02-02T06:13:27.140Z,95.80
2023-02-02T06:15:53.545Z,95.64
2023-02-02T06:18:20.358Z,95.99
2023-02-02T06:20:47.590Z,95.94
2023-02-02T06:23:13.976Z,95.20
2023-02-02T06:25:40.403Z,95.52
2023-02-02T06:28:07.731Z,96.08
2023-02-02T06:30:34.235Z,96.08
2023-02-02T06:33:00.833Z,95.83
2023-02-02T06:35:27.604Z,96.10
2023-02-02T06:37:54.265Z,96.06
2023-02-02T06:40:20.851Z,95.86
2023-02-02T06:42:47.239Z,96.12
2023-02-02T06:45:13.684Z,96.20
2023-02-02T06:47:40.459Z,95.30
2023-02-02T06:50:07.293Z,96.03
2023-02-02T06:52:33.674Z,95.72
2023-02-02T06:55:00.113Z,95.55
2023-02-02T06:57:26.550Z,94.90
2023-02-02T06:59:53.000Z,94.74
2023-02-02T07:02:19.608Z,94.76
2023-02-02T07:04:46.051Z,94.80
2023-02-02T07:07:12.441Z,94.72
2023-02-02T07:09:38.847Z,95.33
2023-02-02T07:12:05.544Z,95.00
2023-02-02T07:14:32.030Z,94.90
2023-02-02T07:16:58.421Z,95.34
2023-02-02T07:19:24.893Z,95.66
2023-02-02T07:21:51.336Z,95.10
2023-02-02T07:24:17.807Z,95.15
2023-02-02T07:26:44.234Z,95.33
2023-02-02T07:29:16.796Z,95.13
2023-02-02T07:31:43.328Z,95.77
2023-02-02T07:34:09.803Z,95.64
2023-02-02T07:36:36.329Z,96.01
2023-02-02T07:39:04.555Z,95.95
2023-02-02T07:41:31.875Z,96.16
2023-02-02T07:43:58.374Z,95.71
2023-02-02T07:46:25.207Z,95.99
2023-02-02T07:48:55.405Z,96.38
2023-02-02T07:51:21.932Z,96.11
2023-02-02T07:53:50.488Z,96.32
2023-02-02T07:56:20.063Z,95.67
2023-02-02T07:58:46.560Z,96.08
2023-02-02T08:01:15.063Z,96.83
2023-02-02T08:03:42.874Z,96.75
2023-02-02T08:06:13.073Z,95.96
2023-02-02T08:08:40.204Z,96.99
2023-02-02T08:11:10.004Z,96.33
2023-02-02T08:13:36.486Z,96.44
2023-02-02T08:16:03.283Z,96.68
2023-02-02T08:18:29.742Z,96.50
2023-02-02T08:21:00.206Z,96.74
2023-02-02T08:23:27.309Z,96.11
2023-02-02T08:25:54.477Z,96.33
2023-02-02T08:28:21.303Z,95.97
2023-02-02T08:30:47.816Z,95.60
2023-02-02T08:33:14.250Z,95.62
2023-02-02T08:35:44.462Z,96.46
2023-02-02T08:38:10.854Z,96.00
2023-02-02T08:40:37.338Z,95.65
2023-02-02T08:43:04.355Z,95.41
2023-02-02T08:46:03.049Z,95.17
2023-02-02T08:48:19.745Z,94.57
2023-02-02T08:50:52.365Z,94.58
2023-02-02T08:53:18.810Z,93.65
2023-02-02T08:55:45.216Z,94.15
2023-02-02T08:58:11.647Z,93.73
2023-02-02T09:00:38.288Z,92.95
2023-02-02T09:03:04.822Z,91.88
2023-02-02T09:05:31.249Z,91.74
2023-02-02T09:07:58.104Z,92.17
2023-02-02T09:10:24.519Z,91.14
2023-02-02T09:12:50.922Z,91.20
2023-02-02T09:15:17.310Z,91.59
2023-02-02T09:17:43.724Z,90.30
2023-02-02T09:20:10.733Z,90.52
2023-02-02T09:22:37.125Z,89.49
2023-02-02T09:25:03.685Z,90.15
2023-02-02T09:27:30.096Z,89.57
2023-02-02T09:29:56.490Z,89.59
2023-02-02T09:32:22.897Z,90.17
2023-02-02T09:34:49.310Z,90.73
2023-02-02T09:37:15.700Z,91.02
2023-02-02T09:39:42.105Z,90.31
2023-02-02T09:42:31.941Z,90.29
2023-02-02T09:45:04.661Z,90.80
2023-02-02T09:47:53.775Z,90.91
2023-02-02T09:50:33.265Z,91.89
2023-02-02T09:53:05.632Z,91.70
2023-02-02T09:55:38.013Z,91.67
2023-02-02T09:58:16.557Z,92.37
2023-02-02T10:01:07.720Z,93.18
2023-02-02T10:03:42.751Z,93.33
2023-02-02T10:06:30.804Z,93.50
2023-02-02T10:09:16.866Z,93.88
2023-02-02T10:11:56.485Z,94.20
2023-02-02T10:14:31.019Z,93.83
2023-02-02T10:17:05.871Z,94.95
2023-02-02T10:19:33.768Z,94.76
2023-02-02T10:22:06.381Z,94.20
2023-02-02T10:24:35.907Z,94.88
2023-02-02T10:27:07.006Z,95.28
2023-02-02T10:29:58.388Z,95.26
2023-02-02T10:32:28.116Z,94.81
2023-02-02T10:35:16.506Z,95.71
2023-02-02T10:38:29.261Z,95.51
2023-02-02T10:40:58.331Z,95.07
2023-02-02T10:43:59.709Z,95.68
2023-02-02T10:46:33.609Z,95.21
2023-02-02T10:49:15.266Z,96.21
2023-02-02T10:51:45.142Z,95.50
2023-02-02T10:54:56.690Z,95.51
2023-02-02T10:57:48.728Z,96.46
2023-02-02T11:00:42.224Z,96.33
2023-02-02T11:03:11.329Z,96.67
2023-02-02T11:05:56.791Z,96.34
2023-02-02T11:08:40.019Z,95.87
2023-02-02T11:11:17.106Z,95.79
2023-02-02T11:14:10.670Z,96.35
2023-02-02T11:16:45.264Z,95.93
2023-02-02T11:19:17.450Z,95.89
2023-02-02T11:21:50.313Z,96.38
2023-02-02T11:24:26.590Z,96.10
2023-02-02T11:26:56.916Z,96.51
2023-02-02T11:29:37.130Z,95.98
2023-02-02T11:32:33.637Z,96.21
2023-02-02T11:35:21.197Z,96.75
2023-02-02T11:37:58.098Z,96.84
2023-02-02T11:40:30.518Z,96.46
2023-02-02T11:42:59.799Z,96.26
2023-02-02T11:45:40.894Z,96.00
2023-02-02T11:48:15.618Z,97.08
2023-02-02T11:50:53.875Z,96.03
2023-02-02T11:53:26.898Z,96.82
2023-02-02T11:55:55.190Z,96.44
2023-02-02T11:58:30.293Z,96.77
2023-02-02T12:00:58.444Z,96.60
2023-02-02T12:03:28.127Z,96.03
2023-02-02T12:05:54.654Z,96.19
2023-02-02T12:08:21.207Z,95.78
2023-02-02T12:11:03.040Z,96.99
2023-02-02T12:14:11.876Z,96.98
2023-02-02T12:16:53.536Z,96.96
2023-02-02T12:19:36.980Z,97.56
2023-02-02T12:22:29.227Z,97.38
2023-02-02T12:25:14.394Z,97.18
2023-02-02T12:27:52.092Z,96.60
2023-02-02T12:30:21.194Z,96.91
2023-02-02T12:33:17.102Z,96.61
2023-02-02T12:36:05.204Z,96.19
2023-02-02T12:38:31.752Z,97.11
2023-02-02T12:41:29.946Z,97.95
2023-02-02T12:44:22.071Z,97.00
2023-02-02T12:47:06.618Z,95.69
2023-02-02T12:50:14.786Z,96.92
2023-02-02T12:52:58.912Z,95.89
2023-02-02T12:55:34.075Z,96.46
2023-02-02T12:58:21.239Z,96.52
2023-02-02T13:01:09.672Z,96.87
2023-02-02T13:03:57.356Z,97.40
2023-02-02T13:06:53.876Z,96.84
2023-02-02T13:09:29.968Z,96.45
2023-02-02T13:12:09.790Z,96.39
2023-02-02T13:15:01.078Z,97.19
2023-02-02T13:17:29.985Z,96.76
2023-02-02T13:20:03.196Z,96.46
2023-02-02T13:22:36.122Z,96.57
2023-02-02T13:25:08.546Z,97.38
2023-02-02T13:27:36.571Z,97.06
2023-02-02T13:30:10.895Z,96.41
2023-02-02T13:32:45.220Z,97.34
2023-02-02T13:35:26.198Z,97.21
2023-02-02T13:38:23.813Z,97.73
2023-02-02T13:40:53.472Z,97.52
2023-02-02T13:43:31.129Z,97.80
2023-02-02T13:46:28.508Z,97.74
2023-02-02T13:49:10.896Z,97.62
2023-02-02T13:52:02.189Z,97.57
2023-02-02T13:54:50.647Z,97.94
2023-02-02T13:57:53.032Z,98.01
2023-02-02T14:00:23.324Z,98.25
2023-02-02T14:03:04.011Z,98.50
2023-02-02T14:05:36.955Z,98.37
2023-02-02T14:08:21.918Z,98.65
2023-02-02T14:10:54.143Z,98.02
2023-02-02T14:14:03.960Z,98.35
2023-02-02T14:16:33.086Z,98.67
2023-02-02T14:19:05.004Z,98.87
2023-02-02T14:21:31.428Z,99.56
2023-02-02T14:24:05.768Z,99.22
2023-02-02T14:26:45.663Z,99.23
2023-02-02T14:29:33.310Z,99.85
2023-02-02T14:32:01.672Z,100.00
2023-02-02T14:34:34.248Z,99.32
2023-02-02T14:37:25.256Z,99.91
2023-02-02T14:39:54.717Z,99.88
2023-02-02T14:43:05.062Z,100.00
2023-02-02T14:45:34.437Z,99.74
2023-02-02T14:48:06.663Z,99.41
2023-02-02T14:50:39.080Z,100.00
2023-02-02T14:53:08.554Z,99.94
2023-02-02T14:55:51.728Z,99.95
2023-02-02T14:58:28.985Z,99.98
2023-02-02T15:01:25.634Z,99.60
2023-02-02T15:04:00.819Z,99.26
2023-02-02T15:06:35.904Z,99.99
2023-02-02T15:09:20.555Z,99.64
2023-02-02T15:12:00.841Z,99.81
2023-02-02T15:14:56.742Z,99.65
2023-02-02T15:17:41.594Z,99.09
2023-02-02T15:20:32.097Z,99.46
2023-02-02T15:23:05.419Z,99.30
2023-02-02T15:25:42.985Z,99.23
2023-02-02T15:28:35.675Z,99.76
2023-02-02T15:31:11.448Z,98.92
2023-02-02T15:33:50.101Z,99.27
2023-02-02T15:36:23.624Z,99.14
2023-02-02T15:38:53.135Z,98.91
2023-02-02T15:41:32.275Z,98.99
2023-02-02T15:43:59.928Z,99.17
2023-02-02T15:46:32.316Z,99.39
2023-02-02T15:49:32.737Z,99.05
2023-02-02T15:52:03.226Z,98.70
2023-02-02T15:54:34.610Z,99.30
2023-02-02T15:57:01.890Z,98.90
2023-02-02T15:59:40.511Z,98.85
2023-02-02T16:02:06.953Z,99.67
2023-02-02T16:04:37.247Z,99.52
2023-02-02T16:07:12.568Z,99.02
2023-02-02T16:09:41.628Z,98.97
2023-02-02T16:12:18.185Z,99.48
2023-02-02T16:14:50.402Z,99.96
2023-02-02T16:17:23.909Z,98.99
2023-02-02T16:19:56.473Z,99.03
2023-02-02T16:22:25.333Z,99.45
2023-02-02T16:24:55.370Z,98.89
2023-02-02T16:27:26.240Z,99.21
2023-02-02T16:29:53.513Z,99.38
2023-02-02T16:32:39.182Z,98.91
2023-02-02T16:35:25.772Z,98.45
2023-02-02T16:37:52.383Z,99.17
2023-02-02T16:40:29.531Z,98.80
2023-02-02T16:43:07.350Z,98.85
2023-02-02T16:45:43.743Z,98.94
2023-02-02T16:48:32.112Z,98.21
2023-02-02T16:51:15.122Z,98.38
2023-02-02T16:53:44.864Z,98.42
2023-02-02T16:56:32.869Z,98.84
2023-02-02T16:59:05.377Z,98.25
2023-02-02T17:01:37.052Z,98.42
2023-02-02T17:04:06.115Z,98.12
2023-02-02T17:06:46.229Z,98.18
2023-02-02T17:09:35.578Z,98.60
2023-02-02T17:12:34.563Z,98.24
2023-02-02T17:15:17.049Z,98.52
2023-02-02T17:17:45.038Z,97.88
2023-02-02T17:20:13.105Z,98.41
2023-02-02T17:22:42.907Z,98.63
2023-02-02T17:25:15.776Z,98.58
2023-02-02T17:27:42.576Z,99.11
2023-02-02T17:30:17.600Z,98.96
2023-02-02T17:32:44.121Z,98.80
2023-02-02T17:35:22.359Z,99.25
2023-02-02T17:37:49.415Z,99.44
2023-02-02T17:40:17.155Z,99.05
2023-02-02T17:42:45.578Z,99.10
2023-02-02T17:45:23.006Z,99.43
2023-02-02T17:47:50.846Z,98.95
2023-02-02T17:50:18.164Z,99.05
2023-02-02T17:52:45.943Z,98.59
2023-02-02T17:55:24.663Z,98.64
2023-02-02T17:57:52.340Z,99.36
2023-02-02T18:00:21.135Z,99.74
2023-02-02T18:02:49.828Z,99.86
2023-02-02T18:05:16.926Z,99.31
2023-02-02T18:07:44.318Z,99.91
2023-02-02T18:10:12.639Z,99.48
2023-02-02T18:12:39.339Z,99.94
2023-02-02T18:15:08.616Z,99.46
2023-02-02T18:17:35.044Z,100.00
2023-02-02T18:20:01.444Z,99.54
2023-02-02T18:22:27.868Z,99.22
2023-02-02T18:24:54.309Z,99.32
2023-02-02T18:27:20.949Z,99.33
2023-02-02T18:29:47.967Z,99.35
2023-02-02T18:32:16.034Z,99.51
2023-02-02T18:34:42.438Z,98.75
2023-02-02T18:37:08.882Z,98.99
2023-02-02T18:39:35.670Z,98.81
2023-02-02T18:42:02.768Z,98.70
2023-02-02T18:44:29.485Z,97.99
2023-02-02T18:46:55.921Z,98.49
2023-02-02T18:49:22.361Z,98.76
2023-02-02T18:51:48.943Z,98.26
2023-02-02T18:54:15.393Z,97.75
2023-02-02T18:56:41.786Z,98.40
2023-02-02T18:59:08.475Z,98.18
2023-02-02T19:01:35.173Z,98.43
2023-02-02T19:04:01.769Z,98.68
2023-02-02T19:06:46.982Z,98.20
2023-02-02T19:09:14.221Z,98.39
2023-02-02T19:11:46.171Z,98.44
2023-02-02T19:14:14.236Z,97.76
2023-02-02T19:16:40.790Z,97.70
2023-02-02T19:19:21.602Z,97.60
2023-02-02T19:21:48.388Z,97.73
2023-02-02T19:24:14.868Z,97.59
2023-02-02T19:26:46.105Z,97.24
2023-02-02T19:29:20.441Z,97.73
2023-02-02T19:31:52.280Z,97.39
2023-02-02T19:34:21.221Z,96.75
2023-02-02T19:36:49.280Z,96.43
2023-02-02T19:39:19.268Z,96.29
2023-02-02T19:41:46.117Z,96.15
2023-02-02T19:44:21.150Z,95.95
2023-02-02T19:46:50.492Z,95.71
2023-02-02T19:49:28.178Z,96.08
2023-02-02T19:51:56.061Z,95.81
2023-02-02T19:54:36.361Z,95.90
2023-02-02T19:57:16.740Z,95.90
2023-02-02T19:59:47.051Z,95.85
2023-02-02T20:02:33.787Z,96.42
2023-02-02T20:05:12.041Z,96.33
2023-02-02T20:07:39.048Z,96.78
2023-02-02T20:10:18.718Z,96.46
2023-02-02T20:12:45.129Z,97.14
2023-02-02T20:15:27.800Z,97.36
2023-02-02T20:17:56.113Z,96.73
2023-02-02T20:20:29.117Z,96.78
2023-02-02T20:22:57.408Z,96.69
2023-02-02T20:25:24.028Z,96.70
2023-02-02T20:27:50.689Z,95.86
2023-02-02T20:30:25.002Z,96.03
2023-02-02T20:32:58.485Z,96.11
2023-02-02T20:35:27.630Z,95.92
2023-02-02T20:37:55.612Z,96.45
2023-02-02T20:40:26.687Z,96.33
2023-02-02T20:42:53.432Z,96.21
2023-02-02T20:45:21.546Z,95.98
2023-02-02T20:47:49.806Z,95.94
2023-02-02T20:50:19.106Z,96.01
2023-02-02T20:52:45.512Z,96.00
2023-02-02T20:55:12.142Z,96.10
2023-02-02T20:57:38.773Z,96.57
2023-02-02T21:00:07.497Z,96.78
2023-02-02T21:02:33.965Z,96.33
2023-02-02T21:05:01.336Z,96.61
2023-02-02T21:07:27.818Z,95.84
2023-02-02T21:09:54.287Z,95.85
2023-02-02T21:12:25.265Z,95.41
2023-02-02T21:14:53.105Z,95.32
2023-02-02T21:17:19.965Z,95.03
2023-02-02T21:19:46.459Z,94.89
2023-02-02T21:22:13.315Z,95.48
2023-02-02T21:24:40.302Z,94.47
2023-02-02T21:27:07.499Z,94.41
2023-02-02T21:29:34.188Z,93.73
2023-02-02T21:32:02.551Z,93.74
2023-02-02T21:34:30.565Z,94.19
2023-02-02T21:36:58.203Z,93.70
2023-02-02T21:39:36.517Z,93.77
2023-02-02T21:42:08.608Z,93.38
2023-02-02T21:44:49.686Z,92.63
2023-02-02T21:47:26.864Z,92.35
2023-02-02T21:49:55.620Z,91.87
2023-02-02T21:52:22.085Z,92.38
2023-02-02T21:54:49.217Z,92.36
2023-02-02T21:57:27.813Z,92.15
2023-02-02T21:59:56.033Z,91.94
2023-02-02T22:02:39.289Z,92.54
2023-02-02T22:05:36.503Z,92.66
2023-02-02T22:08:22.855Z,92.34
2023-02-02T22:10:49.472Z,92.12
2023-02-02T22:13:18.848Z,92.45
2023-02-02T22:15:47.347Z,92.21
2023-02-02T22:18:18.541Z,92.88
2023-02-02T22:20:47.302Z,93.29
2023-02-02T22:23:16.178Z,92.88
2023-02-02T22:25:44.421Z,92.62
2023-02-02T22:28:23.432Z,92.91
2023-02-02T22:30:54.573Z,92.29
2023-02-02T22:33:22.329Z,93.03
2023-02-02T22:35:49.078Z,93.33
2023-02-02T22:38:18.192Z,92.71
2023-02-02T22:40:45.274Z,92.90
2023-02-02T22:43:13.361Z,93.13
2023-02-02T22:45:39.856Z,92.83
2023-02-02T22:48:06.367Z,92.38
2023-02-02T22:50:34.145Z,92.92
2023-02-02T22:53:02.021Z,92.63
2023-02-02T22:55:28.731Z,92.95
2023-02-02T22:57:55.447Z,93.25
2023-02-02T23:00:25.790Z,92.81
2023-02-02T23:02:53.351Z,93.13
2023-02-02T23:05:21.135Z,93.21
2023-02-02T23:07:48.920Z,93.43
2023-02-02T23:10:18.366Z,93.33
2023-02-02T23:12:45.814Z,94.32
2023-02-02T23:15:13.836Z,93.56
2023-02-02T23:17:40.290Z,94.03
2023-02-02T23:20:09.257Z,93.73
2023-02-02T23:22:35.953Z,94.06
2023-02-02T23:25:02.425Z,94.09
2023-02-02T23:27:28.834Z,94.26
2023-02-02T23:29:55.218Z,94.55
2023-02-02T23:32:21.626Z,95.05
2023-02-02T23:34:48.007Z,95.36
2023-02-02T23:37:14.446Z,95.07
2023-02-02T23:39:40.879Z,95.36
2023-02-02T23:42:07.274Z,95.30
2023-02-02T23:44:33.649Z,95.65
2023-02-02T23:47:01.828Z,95.79
2023-02-02T23:49:30.541Z,96.05
2023-02-02T23:51:57.082Z,95.64
2023-02-02T23:54:23.742Z,96.02
2023-02-02T23:56:50.683Z,95.88
2023-02-02T23:59:17.123Z,95.62
